Time;durP1;ratioP1;P1;durP2;ratioP2;P2;SDS_P1;SDS_P2;PMS_P1;PMS_P2;Temp;Humidity;BMP_temperature;BMP_pressure;BME280_temperature;BME280_humidity;BME280_pressure;Samples;Min_cycle;Max_cycle;Signal;HPM_P1;HPM_P2
2022/09/02 00:01:45;;;;;;;0.20;0.20;;;13.90;99.90;;;;;;4804975;29;20051;-81
2022/09/02 00:08:17;;;;;;;1.52;0.30;;;13.80;99.90;;;;;;4805235;29;20394;-81
2022/09/02 00:11:09;;;;;;;0.20;0.20;;;13.80;99.90;;;;;;4805207;29;20054;-81
2022/09/02 00:14:01;;;;;;;0.40;0.30;;;13.70;99.90;;;;;;4812163;29;20057;-81
2022/09/02 00:16:59;;;;;;;1.27;0.40;;;13.70;99.90;;;;;;4805878;29;20042;-82
2022/09/02 00:19:46;;;;;;;0.30;0.30;;;13.60;99.90;;;;;;4801924;29;20055;-82
2022/09/02 00:22:44;;;;;;;;;;;;;;;;;;;;;
2022/09/02 00:25:24;;;;;;;0.85;0.40;;;13.60;99.90;;;;;;4802458;29;20129;-82
2022/09/02 00:28:10;;;;;;;0.20;0.20;;;13.60;99.90;;;;;;4804659;29;20055;-82
2022/09/02 00:31:01;;;;;;;0.22;0.22;;;13.60;99.90;;;;;;4812442;29;20520;-81
2022/09/02 00:33:52;;;;;;;0.50;0.30;;;13.50;99.90;;;;;;4800961;29;20054;-82
2022/09/02 00:36:31;;;;;;;0.30;0.30;;;13.50;99.90;;;;;;4804966;29;20489;-82
2022/09/02 00:39:25;;;;;;;0.75;0.38;;;13.50;99.90;;;;;;4804872;29;20047;-81
2022/09/02 00:42:19;;;;;;;0.55;0.30;;;13.40;99.90;;;;;;4805030;29;20055;-81
2022/09/02 00:45:10;;;;;;;0.80;0.30;;;13.30;99.90;;;;;;4805121;29;20501;-82
2022/09/02 00:51:38;;;;;;;0.43;0.20;;;13.30;99.90;;;;;;4811722;29;20061;-81
2022/09/02 00:54:23;;;;;;;0.30;0.30;;;13.20;99.90;;;;;;4793731;29;20124;-82
2022/09/02 00:57:18;;;;;;;0.60;0.40;;;13.20;99.90;;;;;;4808069;29;20050;-81
2022/09/02 01:00:11;;;;;;;0.30;0.30;;;13.10;99.90;;;;;;4800997;29;20051;-81
2022/09/02 01:03:02;;;;;;;;;;;13.10;99.90;;;;;;4806006;29;20051;-82
2022/09/02 01:05:52;;;;;;;0.30;0.30;;;13.10;99.90;;;;;;4788316;29;19925;-81
2022/09/02 01:08:39;;;;;;;0.20;0.20;;;13.00;99.90;;;;;;4759557;29;20051;-81
2022/09/02 01:12:15;;;;;;;0.45;0.40;;;13.00;99.90;;;;;;4807889;29;20051;-82
2022/09/02 01:15:02;;;;;;;0.47;0.35;;;12.90;99.90;;;;;;4813495;29;20051;-82
2022/09/02 01:18:05;;;;;;;1.45;0.50;;;12.80;99.90;;;;;;4801192;29;20046;-82
2022/09/02 01:20:45;;;;;;;0.30;0.30;;;12.80;99.90;;;;;;4822401;29;20501;-82
2022/09/02 01:23:37;;;;;;;0.32;0.32;;;12.80;99.90;;;;;;4807712;29;20500;-83
2022/09/02 01:26:25;;;;;;;0.50;0.40;;;12.80;99.90;;;;;;4814197;29;20129;-81
2022/09/02 01:29:19;;;;;;;0.82;0.30;;;12.80;99.90;;;;;;4803461;29;20050;-81
2022/09/02 01:32:07;;;;;;;0.30;0.30;;;12.80;99.90;;;;;;4801838;29;20130;-82
2022/09/02 01:34:58;;;;;;;2.65;0.40;;;12.70;99.90;;;;;;4808192;29;20050;-82
2022/09/02 01:37:41;;;;;;;0.30;0.30;;;12.60;99.90;;;;;;4811985;29;20059;-83
2022/09/02 01:40:37;;;;;;;0.30;0.30;;;12.60;99.90;;;;;;4814457;29;20054;-82
2022/09/02 01:43:31;;;;;;;0.40;0.30;;;12.60;99.90;;;;;;4811291;29;20086;-82
2022/09/02 01:46:37;;;;;;;;;;;;;;;;;;;;;
2022/09/02 01:49:21;;;;;;;;;;;12.50;99.90;;;;;;4794008;29;20050;-81
2022/09/02 01:52:08;;;;;;;2.38;0.32;;;12.50;99.90;;;;;;4798123;29;19929;-82
2022/09/02 02:09:37;;;;;;;0.40;0.30;;;12.30;99.90;;;;;;4801773;29;20046;-81
2022/09/02 02:12:20;;;;;;;0.30;0.30;;;12.20;99.90;;;;;;4817568;29;20099;-81
2022/09/02 02:15:17;;;;;;;0.65;0.43;;;12.20;99.90;;;;;;4814830;29;20062;-82
2022/09/02 02:18:08;;;;;;;1.02;0.40;;;12.20;99.90;;;;;;4816135;29;20054;-81
2022/09/02 02:20:51;;;;;;;0.50;0.30;;;12.10;99.90;;;;;;4800674;29;20054;-82
2022/09/02 02:23:33;;;;;;;0.30;0.30;;;12.10;99.90;;;;;;4809389;29;20134;-81
2022/09/02 02:26:14;;;;;;;0.38;0.30;;;12.10;99.90;;;;;;4813547;29;20512;-81
2022/09/02 02:29:07;;;;;;;;;;;12.10;99.90;;;;;;4815001;29;20483;-81
2022/09/02 02:39:25;;;;;;;0.85;0.50;;;12.00;99.90;;;;;;4812477;29;20054;-81
2022/09/02 02:42:27;;;;;;;0.50;0.30;;;11.90;99.90;;;;;;4807306;29;20402;-82
2022/09/02 02:45:20;;;;;;;0.45;0.40;;;11.90;99.90;;;;;;4805776;29;20051;-82
2022/09/02 02:47:57;;;;;;;0.60;0.40;;;11.90;99.90;;;;;;4805960;29;20559;-82
2022/09/02 02:50:37;;;;;;;0.52;0.40;;;11.90;99.90;;;;;;4812357;29;20538;-81
2022/09/02 02:53:35;;;;;;;0.40;0.38;;;11.80;99.90;;;;;;4813694;29;20051;-81
2022/09/02 02:56:28;;;;;;;0.65;0.40;;;11.80;99.90;;;;;;4808150;29;20051;-82
2022/09/02 03:06:43;;;;;;;0.20;0.20;;;11.70;99.90;;;;;;4799428;29;20473;-82
2022/09/02 03:09:33;;;;;;;0.70;0.40;;;11.70;99.90;;;;;;4805927;29;20474;-82
2022/09/02 03:12:27;;;;;;;0.40;0.30;;;11.70;99.90;;;;;;4806225;29;20554;-82
2022/09/02 03:15:10;;;;;;;0.50;0.40;;;11.70;99.90;;;;;;4806793;29;20420;-81
2022/09/02 03:17:48;;;;;;;1.17;0.45;;;11.70;99.90;;;;;;4762894;29;20050;-81
2022/09/02 03:20:37;;;;;;;0.50;0.40;;;11.60;99.90;;;;;;4782861;29;20050;-81
2022/09/02 03:23:25;;;;;;;0.40;0.40;;;11.60;99.90;;;;;;4805764;29;20043;-81
2022/09/02 03:34:14;;;;;;;0.50;0.40;;;11.60;99.90;;;;;;4804323;29;20080;-82
2022/09/02 03:36:47;;;;;;;0.40;0.40;;;11.60;99.90;;;;;;4805733;29;20039;-82
2022/09/02 03:39:38;;;;;;;0.52;0.40;;;11.60;99.90;;;;;;4806009;29;20046;-81
2022/09/02 03:42:21;;;;;;;1.23;0.40;;;11.50;99.90;;;;;;4808458;29;20054;-81
2022/09/02 03:45:03;;;;;;;0.43;0.32;;;11.50;99.90;;;;;;4804598;29;20492;-81
2022/09/02 03:47:46;;;;;;;0.32;0.30;;;11.50;99.90;;;;;;4805465;29;20106;-82
2022/09/02 03:50:31;;;;;;;1.10;0.40;;;11.50;99.90;;;;;;4765397;29;20046;-81
2022/09/02 03:53:23;;;;;;;0.22;0.22;;;11.50;99.90;;;;;;4751737;30;20110;-81
2022/09/02 03:56:31;;;;;;;0.40;0.32;;;11.50;99.90;;;;;;4749772;30;20113;-81
2022/09/02 03:59:24;;;;;;;0.60;0.30;;;11.50;99.90;;;;;;4752960;30;20127;-81
2022/09/02 04:02:14;;;;;;;0.40;0.30;;;11.50;99.90;;;;;;4751470;30;20048;-81
2022/09/02 04:05:05;;;;;;;0.30;0.30;;;11.50;99.90;;;;;;4756732;30;20068;-81
2022/09/02 04:07:52;;;;;;;0.57;0.40;;;11.50;99.90;;;;;;4758176;30;20477;-81
2022/09/02 04:10:25;;;;;;;0.30;0.30;;;11.50;99.90;;;;;;4730438;30;20079;-82
2022/09/02 04:13:11;;;;;;;0.30;0.30;;;11.50;99.90;;;;;;4751465;30;20052;-81
2022/09/02 04:16:12;;;;;;;0.32;0.30;;;11.50;99.90;;;;;;4750228;30;20052;-81
2022/09/02 04:18:55;;;;;;;0.30;0.30;;;11.50;99.90;;;;;;4754665;30;20136;-82
2022/09/02 04:21:33;;;;;;;0.30;0.30;;;11.50;99.90;;;;;;4759028;30;20451;-81
2022/09/02 04:24:25;;;;;;;0.60;0.38;;;11.50;99.90;;;;;;4751253;30;20139;-82
2022/09/02 04:27:19;;;;;;;0.30;0.30;;;11.50;99.90;;;;;;4756831;30;20138;-83
2022/09/02 04:30:10;;;;;;;0.50;0.50;;;11.40;99.90;;;;;;4766064;29;20047;-81
2022/09/02 04:32:52;;;;;;;0.30;0.30;;;11.40;99.90;;;;;;4805710;29;20057;-81
2022/09/02 04:35:40;;;;;;;0.88;0.50;;;11.40;99.90;;;;;;4805156;29;20508;-82
2022/09/02 04:38:16;;;;;;;0.70;0.68;;;11.40;99.90;;;;;;4809894;29;20111;-84
2022/09/02 04:40:57;;;;;;;0.65;0.40;;;11.30;99.90;;;;;;4819950;29;20404;-83
2022/09/02 04:43:33;;;;;;;0.30;0.30;;;11.30;99.90;;;;;;4806286;29;20057;-84
2022/09/02 04:46:07;;;;;;;0.20;0.20;;;11.30;99.90;;;;;;4810092;29;20526;-83
2022/09/02 04:48:39;;;;;;;0.60;0.40;;;11.30;99.90;;;;;;4808298;29;20042;-83
2022/09/02 04:51:18;;;;;;;0.55;0.30;;;11.30;99.90;;;;;;4801621;29;20078;-84
2022/09/02 04:54:02;;;;;;;0.68;0.40;;;11.30;99.90;;;;;;4814941;29;20092;-83
2022/09/02 04:56:39;;;;;;;0.47;0.30;;;11.30;99.90;;;;;;4808196;29;20050;-83
2022/09/02 05:10:28;;;;;;;0.50;0.30;;;11.30;99.90;;;;;;4801786;29;20092;-83
2022/09/02 05:13:03;;;;;;;0.40;0.40;;;11.40;99.90;;;;;;4808172;29;20043;-83
2022/09/02 05:15:47;;;;;;;0.50;0.30;;;11.40;99.90;;;;;;4804002;29;20058;-83
2022/09/02 05:18:27;;;;;;;0.30;0.30;;;11.40;99.90;;;;;;4800509;29;20512;-83
2022/09/02 05:21:17;;;;;;;0.40;0.30;;;11.40;99.90;;;;;;4804613;29;20137;-83
2022/09/02 05:24:13;;;;;;;;;;;;;;;;;;;;;
2022/09/02 05:26:50;;;;;;;0.40;0.30;;;11.50;99.90;;;;;;4775506;29;20470;-83
2022/09/02 05:29:38;;;;;;;0.50;0.30;;;11.50;99.90;;;;;;4801771;29;20057;-83
2022/09/02 05:32:30;;;;;;;0.70;0.40;;;11.60;99.90;;;;;;4807693;29;20051;-82
2022/09/02 05:35:16;;;;;;;0.70;0.40;;;11.60;99.90;;;;;;4808183;29;20047;-83
2022/09/02 05:37:57;;;;;;;0.20;0.20;;;11.70;99.90;;;;;;4798154;29;20496;-83
2022/09/02 05:40:52;;;;;;;1.65;0.28;;;11.70;99.90;;;;;;4813174;29;20134;-83
2022/09/02 05:43:39;;;;;;;0.45;0.30;;;11.80;99.90;;;;;;4802599;29;20408;-83
2022/09/02 05:46:30;;;;;;;0.40;0.32;;;11.80;99.90;;;;;;4814487;29;20139;-82
2022/09/02 05:49:11;;;;;;;0.20;0.20;;;11.90;99.90;;;;;;4820382;29;20042;-82
2022/09/02 05:52:10;;;;;;;0.30;0.30;;;12.00;99.90;;;;;;4804034;29;20054;-83
2022/09/02 05:55:07;;;;;;;;;;;;;;;;;;;;;
2022/09/02 05:57:45;;;;;;;0.68;0.30;;;12.30;99.90;;;;;;4753836;30;20059;-84
2022/09/02 06:00:29;;;;;;;0.25;0.25;;;12.40;99.90;;;;;;4805668;29;20405;-83
2022/09/02 06:03:04;;;;;;;0.50;0.30;;;12.50;99.90;;;;;;4792914;29;20131;-83
2022/09/02 06:05:41;;;;;;;1.10;0.40;;;12.70;99.90;;;;;;4807098;29;20080;-82
2022/09/02 06:08:29;;;;;;;1.92;0.40;;;12.80;99.90;;;;;;4806763;29;20059;-81
2022/09/02 06:11:09;;;;;;;0.35;0.30;;;13.00;99.90;;;;;;4806562;29;20519;-82
2022/09/02 06:13:39;;;;;;;0.70;0.40;;;13.10;99.90;;;;;;4801451;29;20373;-82
2022/09/02 06:16:31;;;;;;;0.50;0.40;;;13.30;99.90;;;;;;4805939;29;20051;-82
2022/09/02 06:19:06;;;;;;;0.52;0.40;;;13.40;99.90;;;;;;4806595;29;20050;-81
2022/09/02 06:21:52;;;;;;;0.50;0.30;;;13.60;99.90;;;;;;4812881;29;20055;-84
2022/09/02 06:24:25;;;;;;;0.38;0.35;;;13.80;99.90;;;;;;4762060;29;20130;-82
2022/09/02 06:26:58;;;;;;;0.63;0.40;;;14.00;99.90;;;;;;4812319;29;20045;-82
2022/09/02 06:29:39;;;;;;;0.57;0.40;;;14.10;99.90;;;;;;4791384;29;20500;-85
2022/09/02 06:35:51;;;;;;;0.55;0.40;;;14.40;99.90;;;;;;4814076;29;20112;-84
2022/09/02 06:38:35;;;;;;;0.50;0.40;;;14.60;99.90;;;;;;4807309;29;20046;-86
2022/09/02 06:41:16;;;;;;;0.90;0.45;;;14.70;99.90;;;;;;4794710;29;20047;-85
2022/09/02 06:43:52;;;;;;;0.60;0.40;;;14.90;99.90;;;;;;4800349;29;20078;-85
2022/09/02 06:46:37;;;;;;;2.53;0.30;;;15.00;99.90;;;;;;4810394;29;20067;-83
2022/09/02 06:49:25;;;;;;;0.47;0.20;;;15.20;99.90;;;;;;4806392;29;20091;-92
2022/09/02 06:52:14;;;;;;;0.50;0.30;;;15.30;99.90;;;;;;4803103;29;20579;-91
2022/09/02 06:55:20;;;;;;;;;;;;;;;;;;;;;
2022/09/02 06:58:04;;;;;;;1.10;0.50;;;15.60;99.90;;;;;;4791733;29;20055;-91
2022/09/02 07:00:42;;;;;;;0.80;0.38;;;15.90;99.90;;;;;;4815883;29;20061;-90
2022/09/02 07:06:32;;;;;;;;;;;;;;;;;;;;;
2022/09/02 07:13:05;;;;;;;0.40;0.30;;;16.40;99.90;;;;;;4809823;29;20053;-92
2022/09/02 07:16:22;;;;;;;1.10;0.50;;;16.50;99.90;;;;;;4816238;29;20050;-92
2022/09/02 07:19:07;;;;;;;1.08;0.40;;;16.70;99.90;;;;;;4818830;29;20442;-89
2022/09/02 07:21:57;;;;;;;0.40;0.30;;;16.80;99.90;;;;;;4817620;29;20047;-89
2022/09/02 07:24:46;;;;;;;0.28;0.28;;;17.00;99.90;;;;;;4833598;29;20062;-91
2022/09/02 07:27:21;;;;;;;0.30;0.30;;;17.10;99.90;;;;;;4813268;29;20046;-89
2022/09/02 07:29:58;;;;;;;0.35;0.20;;;17.30;99.90;;;;;;4806051;29;20077;-91
2022/09/02 07:32:38;;;;;;;0.45;0.30;;;17.40;99.90;;;;;;4807510;29;20046;-90
2022/09/02 07:35:29;;;;;;;0.60;0.30;;;17.50;99.90;;;;;;4809690;29;20050;-88
2022/09/02 07:38:12;;;;;;;0.93;0.40;;;17.70;99.90;;;;;;4795124;29;20132;-90
2022/09/02 07:40:50;;;;;;;0.60;0.50;;;17.80;99.90;;;;;;4809031;29;20532;-89
2022/09/02 07:43:34;;;;;;;0.82;0.40;;;17.90;99.90;;;;;;4808643;29;20161;-87
2022/09/02 07:46:19;;;;;;;0.80;0.40;;;18.10;99.90;;;;;;4789815;29;20193;-84
2022/09/02 07:49:07;;;;;;;1.65;0.70;;;18.10;99.90;;;;;;4807310;29;20043;-81
2022/09/02 07:51:48;;;;;;;0.70;0.40;;;18.20;99.90;;;;;;4806095;29;20046;-83
2022/09/02 07:54:20;;;;;;;2.05;0.40;;;18.30;99.90;;;;;;4811441;29;20038;-83
2022/09/02 08:15:23;;;;;;;0.55;0.40;;;19.10;99.90;;;;;;4803306;29;20092;-81
2022/09/02 08:18:12;;;;;;;1.08;0.35;;;19.30;99.90;;;;;;4809068;29;20051;-82
2022/09/02 08:20:57;;;;;;;0.47;0.30;;;19.30;99.90;;;;;;4809807;29;20431;-80
2022/09/02 08:23:35;;;;;;;0.73;0.32;;;19.40;99.90;;;;;;4809368;29;20056;-81
2022/09/02 08:26:20;;;;;;;1.05;0.32;;;19.60;99.90;;;;;;4809480;29;20058;-80
2022/09/02 08:29:16;;;;;;;3.50;0.38;;;19.70;99.90;;;;;;4809528;29;20125;-81
2022/09/02 08:31:57;;;;;;;0.98;0.20;;;19.80;99.90;;;;;;4809272;29;20047;-81
2022/09/02 08:34:47;;;;;;;0.95;0.30;;;20.00;99.90;;;;;;4809783;29;20058;-82
2022/09/02 08:37:47;;;;;;;1.37;0.40;;;20.10;99.90;;;;;;4809511;29;20055;-80
2022/09/02 08:40:23;;;;;;;0.93;0.30;;;20.30;99.90;;;;;;4809339;29;20634;-81
2022/09/02 08:43:31;;;;;;;2.97;0.30;;;20.40;99.90;;;;;;4808828;29;20043;-81
2022/09/02 08:46:07;;;;;;;0.55;0.20;;;20.50;99.90;;;;;;4808632;29;20046;-82
2022/09/02 08:49:09;;;;;;;0.38;0.20;;;20.60;99.90;;;;;;4809224;29;20058;-81
2022/09/02 08:52:07;;;;;;;1.85;0.38;;;20.70;99.70;;;;;;4809115;29;20424;-81
2022/09/02 08:55:06;;;;;;;0.75;0.43;;;20.80;99.30;;;;;;4808446;29;20420;-81
2022/09/02 08:58:05;;;;;;;;;;;;;;;;;;;;;
2022/09/02 09:27:47;;;;;;;;;;;21.90;97.60;;;;;;4933246;24;20812;-85
2022/09/02 09:30:27;;;;;;;1.48;0.40;;;22.00;97.40;;;;;;4808815;29;19925;-87
2022/09/02 09:33:36;;;;;;;0.70;0.40;;;22.00;97.00;;;;;;4826348;29;20397;-87
2022/09/02 09:36:50;;;;;;;1.10;0.30;;;22.20;97.70;;;;;;4739610;30;20060;-87
2022/09/02 09:39:32;;;;;;;0.50;0.40;;;22.20;96.80;;;;;;4855878;24;20062;-86
2022/09/02 09:42:13;;;;;;;0.55;0.40;;;22.40;96.30;;;;;;4809595;29;20110;-85
2022/09/02 09:49:39;;;;;;;;;;;;;;;;;;;;;
2022/09/02 09:55:53;;;;;;;0.93;0.40;;;23.00;94.70;;;;;;4751565;30;20100;-85
2022/09/02 09:58:40;;;;;;;2.38;0.40;;;23.10;95.30;;;;;;4702364;30;20175;-85
2022/09/02 10:01:32;;;;;;;0.35;0.30;;;23.10;95.50;;;;;;4711272;30;20114;-87
2022/09/02 10:04:30;;;;;;;0.40;0.30;;;23.20;94.60;;;;;;4719510;30;20069;-86
2022/09/02 10:07:21;;;;;;;1.05;0.47;;;23.30;94.10;;;;;;4731052;30;20065;-84
2022/09/02 10:10:32;;;;;;;0.70;0.40;;;23.40;94.50;;;;;;4719380;30;20060;-84
2022/09/02 10:13:25;;;;;;;0.40;0.40;;;23.60;93.40;;;;;;4667363;30;20046;-84
2022/09/02 10:39:01;;;;;;;0.60;0.30;;;24.10;90.60;;;;;;4799570;29;20066;-85
2022/09/02 10:41:51;;;;;;;0.67;0.40;;;24.20;91.20;;;;;;4791299;29;20046;-85
2022/09/02 10:45:01;;;;;;;2.92;0.40;;;24.30;90.70;;;;;;4791198;29;20311;-85
2022/09/02 11:15:20;;;;;;;0.73;0.20;;;25.40;84.10;;;;;;4879806;24;20062;-86
2022/09/02 12:26:57;;;;;;;0.52;0.30;;;27.50;73.60;;;;;;5543832;24;20108;-88
2022/09/02 12:29:44;;;;;;;1.00;0.30;;;27.50;74.90;;;;;;4782930;29;20047;-93
2022/09/02 13:01:00;;;;;;;;;;;;;;;;;;;;;
2022/09/02 13:29:26;;;;;;;0.77;0.20;;;28.40;67.90;;;;;;5103083;23;20054;-88
2022/09/02 13:36:13;;;;;;;0.40;0.25;;;28.40;66.10;;;;;;4727843;30;20053;-87
2022/09/02 15:17:50;;;;;;;0.40;0.35;;;26.90;63.60;;;;;;4809785;24;19926;-93
2022/09/02 15:29:26;;;;;;;1.60;0.22;;;26.60;63.20;;;;;;5378980;24;20053;-91
2022/09/02 15:44:34;;;;;;;0.50;0.20;;;25.80;65.00;;;;;;4745359;30;20058;-87
2022/09/02 15:57:51;;;;;;;0.90;0.20;;;25.40;66.30;;;;;;4989076;24;20044;-88
2022/09/02 16:16:41;;;;;;;1.83;0.20;;;24.60;68.80;;;;;;4601529;24;20090;-87
2022/09/02 16:19:36;;;;;;;0.73;0.30;;;24.50;69.70;;;;;;4813885;29;20076;-91
2022/09/02 16:22:32;;;;;;;2.28;0.20;;;24.40;70.50;;;;;;4779206;29;20063;-89
2022/09/02 16:28:55;;;;;;;0.52;0.20;;;24.10;71.30;;;;;;4800150;29;20065;-91
2022/09/02 16:31:49;;;;;;;3.00;0.25;;;24.60;71.70;;;;;;4814847;29;20404;-90
2022/09/02 16:34:32;;;;;;;0.60;0.20;;;23.90;71.40;;;;;;4796726;29;20050;-91
2022/09/02 16:37:13;;;;;;;0.60;0.20;;;23.90;72.20;;;;;;4803986;29;20054;-89
2022/09/02 16:40:11;;;;;;;0.25;0.10;;;23.80;72.50;;;;;;4831142;24;20066;-89
2022/09/02 16:42:49;;;;;;;0.30;0.30;;;23.70;72.40;;;;;;4816309;29;20047;-90
2022/09/02 16:46:20;;;;;;;;;;;;;;;;;;;;;
2022/09/02 16:49:25;;;;;;;0.82;0.25;;;23.50;73.40;;;;;;4716222;30;20057;-89
2022/09/02 16:52:40;;;;;;;0.40;0.20;;;23.40;72.90;;;;;;4734667;30;20087;-92
2022/09/02 16:55:32;;;;;;;0.30;0.20;;;23.40;73.60;;;;;;4735901;30;20113;-91
2022/09/02 16:58:43;;;;;;;1.83;0.20;;;23.20;74.10;;;;;;4736453;30;20088;-90
2022/09/02 17:01:30;;;;;;;1.95;0.35;;;23.10;74.30;;;;;;4733090;30;20053;-90
2022/09/02 17:04:17;;;;;;;;;;;;;;;;;;;;;
2022/09/02 17:07:14;;;;;;;;;;;;;;;;;;;;;
2022/09/02 17:09:54;;;;;;;1.40;0.20;;;22.80;75.90;;;;;;4743283;30;20088;-89
2022/09/02 17:20:06;;;;;;;;;;;;;;;;;;;;;
2022/09/02 17:23:08;;;;;;;;;;;;;;;;;;;;;
2022/09/02 17:26:12;;;;;;;0.20;0.20;;;22.40;76.50;;;;;;4766001;29;20066;-84
2022/09/02 17:28:46;;;;;;;0.30;0.10;;;22.50;77.80;;;;;;4802287;24;20063;-85
2022/09/02 17:31:34;;;;;;;0.60;0.22;;;22.40;78.10;;;;;;4784177;30;20043;-85
2022/09/02 17:34:52;;;;;;;0.30;0.20;;;22.30;78.20;;;;;;4809423;24;20163;-89
2022/09/02 17:37:46;;;;;;;0.40;0.22;;;22.20;78.60;;;;;;4790389;29;20050;-85
2022/09/02 17:44:16;;;;;;;0.65;0.20;;;22.00;79.70;;;;;;4797588;29;20046;-87
2022/09/02 17:47:13;;;;;;;;;;;;;;;;;;;;;
2022/09/02 17:49:52;;;;;;;1.45;0.30;;;21.80;79.80;;;;;;4754269;30;20114;-85
2022/09/02 17:52:36;;;;;;;0.40;0.20;;;21.70;80.10;;;;;;4744390;30;20052;-83
2022/09/02 17:55:35;;;;;;;0.35;0.30;;;21.60;80.40;;;;;;4760906;30;20051;-85
2022/09/02 17:58:30;;;;;;;0.40;0.30;;;21.50;80.80;;;;;;4763534;30;20480;-84
2022/09/02 18:01:17;;;;;;;1.08;0.30;;;21.90;81.70;;;;;;4758861;30;20048;-85
2022/09/02 18:04:28;;;;;;;0.63;0.30;;;21.20;82.40;;;;;;4754072;30;20098;-84
2022/09/02 18:07:31;;;;;;;;;;;;;;;;;;;;;
2022/09/02 18:10:17;;;;;;;0.30;0.28;;;20.90;83.20;;;;;;4741135;30;20147;-85
2022/09/02 18:13:10;;;;;;;0.30;0.30;;;20.80;83.70;;;;;;4748202;30;20044;-84
2022/09/02 18:16:15;;;;;;;0.32;0.25;;;20.70;83.80;;;;;;4753873;30;20124;-84
2022/09/02 18:19:42;;;;;;;0.20;0.20;;;20.60;84.00;;;;;;4751474;30;20056;-82
2022/09/02 18:23:09;;;;;;;0.90;0.30;;;20.50;84.20;;;;;;4757633;29;20052;-83
2022/09/02 18:26:09;;;;;;;1.13;0.30;;;20.30;84.80;;;;;;4808396;29;20505;-83
2022/09/02 18:29:19;;;;;;;0.60;0.30;;;20.20;84.80;;;;;;4782454;29;20068;-82
2022/09/02 18:32:10;;;;;;;0.38;0.30;;;20.10;85.70;;;;;;4801151;29;20616;-82
2022/09/02 18:35:41;;;;;;;0.30;0.30;;;19.90;86.20;;;;;;4814899;29;20039;-83
2022/09/02 18:38:53;;;;;;;0.90;0.30;;;19.90;86.80;;;;;;4768544;30;20067;-81
2022/09/02 19:06:16;;;;;;;0.38;0.38;;;19.10;90.10;;;;;;4975028;24;20086;-84
2022/09/02 19:11:42;;;;;;;0.70;0.20;;;19.00;90.30;;;;;;4899080;23;20398;-88
2022/09/02 19:15:02;;;;;;;2.47;0.40;;;18.70;90.60;;;;;;4795456;29;20057;-86
2022/09/02 19:17:58;;;;;;;;;;;18.80;90.90;;;;;;4754433;30;20068;-86
2022/09/02 19:23:25;;;;;;;;;;;18.70;90.90;;;;;;4853166;24;20062;-86
2022/09/02 19:33:19;;;;;;;0.43;0.32;;;18.20;91.50;;;;;;4732060;30;20059;-87
2022/09/02 19:47:23;;;;;;;;;;;;;;;;;;;;;
2022/09/02 20:22:40;;;;;;;;;;;;;;;;;;;;;
2022/09/02 20:31:00;;;;;;;0.77;0.38;;;18.10;90.90;;;;;;4699789;30;20057;-86
2022/09/02 20:51:05;;;;;;;;;;;;;;;;;;;;;
2022/09/02 20:54:38;;;;;;;1.60;0.40;;;18.60;90.60;;;;;;5121145;22;20357;-86
2022/09/02 21:09:53;;;;;;;0.73;0.30;;;18.60;90.30;;;;;;4944325;29;20440;-86
2022/09/02 21:20:00;;;;;;;0.43;0.30;;;18.60;89.60;;;;;;4907910;29;20044;-87
2022/09/02 21:23:18;;;;;;;0.45;0.28;;;18.60;89.30;;;;;;4912015;29;20055;-87
2022/09/02 21:26:30;;;;;;;1.63;0.30;;;18.60;89.40;;;;;;4905646;29;20563;-88
2022/09/02 21:29:46;;;;;;;0.38;0.30;;;17.80;88.40;;;;;;4911073;29;20057;-86
2022/09/02 21:33:12;;;;;;;0.77;0.38;;;19.00;88.80;;;;;;4837261;29;20118;-87
2022/09/02 21:36:40;;;;;;;1.15;0.50;;;18.40;88.80;;;;;;4855679;29;20057;-86
2022/09/02 21:39:27;;;;;;;1.25;0.50;;;18.60;88.60;;;;;;4842864;29;20085;-86
2022/09/02 21:42:59;;;;;;;;;;;;;;;;;;;;;
2022/09/02 21:45:56;;;;;;;3.28;0.50;;;18.60;88.10;;;;;;4853694;29;20049;-86
2022/09/02 21:48:52;;;;;;;0.80;0.40;;;18.60;88.40;;;;;;4853840;29;20105;-86
2022/09/02 21:51:35;;;;;;;0.50;0.45;;;18.60;88.10;;;;;;4848639;29;20415;-86
2022/09/02 21:54:13;;;;;;;1.05;0.40;;;18.60;88.00;;;;;;4903653;29;20057;-87
2022/09/02 22:00:52;;;;;;;;;;;;;;;;;;;;;
2022/09/02 22:04:31;;;;;;;0.88;0.35;;;18.50;88.30;;;;;;4886544;29;20062;-87
2022/09/02 22:14:45;;;;;;;0.98;0.45;;;18.20;88.60;;;;;;5027947;22;20113;-87
2022/09/02 22:18:19;;;;;;;;;;;;;;;;;;;;;
2022/09/02 22:21:37;;;;;;;0.98;0.40;;;18.20;89.40;;;;;;4923658;29;20401;-85
2022/09/02 22:24:39;;;;;;;0.60;0.38;;;19.50;90.20;;;;;;4879925;29;20052;-85
2022/09/02 22:27:39;;;;;;;0.30;0.20;;;18.30;90.10;;;;;;4904332;29;20051;-87
2022/09/02 22:31:05;;;;;;;0.70;0.30;;;18.20;90.20;;;;;;4918369;29;20036;-86
2022/09/02 22:41:52;;;;;;;0.50;0.30;;;17.50;90.60;;;;;;4900888;29;20119;-86
2022/09/02 22:54:42;;;;;;;;;;;;;;;;;;;;;
2022/09/02 23:02:16;;;;;;;0.38;0.30;;;16.80;91.80;;;;;;4943026;29;20118;-86
2022/09/02 23:05:16;;;;;;;;;;;;;;;;;;;;;
2022/09/02 23:08:19;;;;;;;0.65;0.35;;;15.70;91.90;;;;;;4907368;29;20063;-86
2022/09/02 23:11:36;;;;;;;;;;;;;;;;;;;;;
2022/09/02 23:18:54;;;;;;;0.82;0.35;;;16.30;92.60;;;;;;4973943;28;20061;-86
2022/09/02 23:22:10;;;;;;;0.22;0.20;;;15.60;93.00;;;;;;4970553;28;20136;-86
2022/09/02 23:25:44;;;;;;;;;;;;;;;;;;;;;
2022/09/02 23:28:55;;;;;;;;;;;16.30;93.40;;;;;;4883302;29;20148;-85
2022/09/02 23:32:01;;;;;;;0.40;0.30;;;15.70;93.90;;;;;;4897996;29;19986;-85
2022/09/02 23:35:28;;;;;;;1.42;0.40;;;15.90;94.30;;;;;;4892912;29;20499;-85
2022/09/02 23:39:02;;;;;;;0.52;0.52;;;15.70;94.40;;;;;;4895736;29;20081;-85
2022/09/02 23:41:46;;;;;;;0.68;0.45;;;15.70;94.90;;;;;;4880978;29;20354;-85
2022/09/02 23:44:37;;;;;;;0.70;0.40;;;15.60;94.90;;;;;;4908347;28;20102;-85
2022/09/02 23:47:51;;;;;;;1.05;0.40;;;15.10;94.90;;;;;;4968686;28;20563;-86
2022/09/02 23:51:09;;;;;;;0.80;0.52;;;15.10;94.90;;;;;;4957321;28;20121;-86
2022/09/02 23:55:02;;;;;;;0.98;0.40;;;15.70;95.40;;;;;;4959506;28;20082;-84
2022/09/02 23:58:12;;;;;;;1.42;0.60;;;15.30;95.40;;;;;;4967711;28;20082;-86
